createdAt,value
2024-03-31T00:00:42.225Z,16.06
2024-03-31T00:01:44.264Z,16.02
2024-03-31T00:02:46.423Z,15.97
2024-03-31T00:03:48.462Z,15.93
2024-03-31T00:04:52.130Z,15.88
2024-03-31T00:05:57.253Z,15.85
2024-03-31T00:07:00.108Z,15.80
2024-03-31T00:08:03.591Z,15.75
2024-03-31T00:09:05.644Z,15.70
2024-03-31T00:10:07.679Z,15.65
2024-03-31T00:11:11.789Z,15.61
2024-03-31T00:12:13.880Z,15.56
2024-03-31T00:13:18.289Z,15.51
2024-03-31T00:14:21.996Z,15.47
2024-03-31T00:15:24.817Z,15.43
2024-03-31T00:16:26.878Z,15.39
2024-03-31T00:17:28.986Z,15.36
2024-03-31T00:18:31.420Z,15.32
2024-03-31T00:19:33.464Z,15.29
2024-03-31T00:20:35.536Z,15.24
2024-03-31T00:21:37.580Z,15.20
2024-03-31T00:22:39.644Z,15.16
2024-03-31T00:23:41.678Z,15.13
2024-03-31T00:24:43.883Z,15.09
2024-03-31T00:25:45.931Z,15.06
2024-03-31T00:26:47.979Z,15.03
2024-03-31T00:27:51.074Z,14.99
2024-03-31T00:28:53.128Z,14.96
2024-03-31T00:29:55.744Z,14.92
2024-03-31T00:31:00.055Z,14.89
2024-03-31T00:32:02.281Z,14.86
2024-03-31T00:33:04.610Z,14.82
2024-03-31T00:34:06.647Z,14.79
2024-03-31T00:35:08.694Z,14.75
2024-03-31T00:36:10.744Z,14.72
2024-03-31T00:37:12.778Z,14.70
2024-03-31T00:38:14.820Z,14.67
2024-03-31T00:39:17.541Z,14.64
2024-03-31T00:40:19.580Z,14.61
2024-03-31T00:41:21.637Z,14.58
2024-03-31T00:42:23.676Z,14.55
2024-03-31T00:43:25.735Z,14.52
2024-03-31T00:44:27.771Z,14.49
2024-03-31T00:45:30.900Z,14.47
2024-03-31T00:46:32.928Z,14.43
2024-03-31T00:47:34.987Z,14.40
2024-03-31T00:48:37.084Z,14.38
2024-03-31T00:49:39.116Z,14.36
2024-03-31T00:50:41.166Z,14.33
2024-03-31T00:51:43.216Z,14.30
2024-03-31T00:52:45.248Z,14.28
2024-03-31T00:53:47.450Z,14.25
2024-03-31T00:54:49.500Z,14.23
2024-03-31T00:55:51.539Z,14.20
2024-03-31T00:56:53.586Z,14.19
2024-03-31T00:57:56.504Z,14.17
2024-03-31T00:58:58.545Z,14.14
2024-03-31T01:00:02.777Z,14.12
2024-03-31T01:01:04.826Z,14.09
2024-03-31T01:02:07.488Z,14.07
2024-03-31T01:03:09.533Z,14.05
2024-03-31T01:04:11.652Z,14.03
2024-03-31T01:05:13.805Z,14.01
2024-03-31T01:06:18.661Z,14.00
2024-03-31T01:07:20.755Z,13.99
2024-03-31T01:08:23.516Z,13.97
2024-03-31T01:09:25.587Z,13.96
2024-03-31T01:10:27.884Z,13.95
2024-03-31T01:11:30.019Z,13.93
2024-03-31T01:12:32.524Z,13.92
2024-03-31T01:13:34.613Z,13.91
2024-03-31T01:14:41.371Z,13.90
2024-03-31T01:15:43.440Z,13.89
2024-03-31T01:16:48.148Z,13.88
2024-03-31T01:17:50.190Z,13.87
2024-03-31T01:18:52.278Z,13.86
2024-03-31T01:19:54.336Z,13.86
2024-03-31T01:20:56.367Z,13.85
2024-03-31T01:21:58.774Z,13.84
2024-03-31T01:23:03.190Z,13.84
2024-03-31T01:24:05.372Z,13.84
2024-03-31T01:25:07.600Z,13.84
2024-03-31T01:26:09.689Z,13.83
2024-03-31T01:27:11.723Z,13.83
2024-03-31T01:28:13.767Z,13.84
2024-03-31T01:29:15.819Z,13.85
2024-03-31T01:30:18.518Z,13.85
2024-03-31T01:31:21.506Z,13.86
2024-03-31T01:32:23.568Z,13.87
2024-03-31T01:33:28.196Z,13.88
2024-03-31T01:34:31.495Z,13.90
2024-03-31T01:35:33.558Z,13.91
2024-03-31T01:36:35.619Z,13.94
2024-03-31T01:37:37.636Z,13.96
2024-03-31T01:38:51.161Z,13.99
2024-03-31T01:40:01.205Z,14.01
2024-03-31T01:41:03.316Z,14.03
2024-03-31T01:42:05.550Z,14.05
2024-03-31T01:43:07.731Z,14.07
2024-03-31T01:44:09.760Z,14.09
2024-03-31T01:45:12.336Z,14.11
2024-03-31T01:46:14.398Z,14.13
2024-03-31T01:47:16.443Z,14.14
2024-03-31T01:48:18.571Z,14.15
2024-03-31T01:49:20.608Z,14.16
2024-03-31T01:50:22.799Z,14.18
2024-03-31T01:51:25.117Z,14.20
2024-03-31T01:52:27.145Z,14.21
2024-03-31T01:53:29.224Z,14.23
2024-03-31T01:54:33.427Z,14.25
2024-03-31T01:55:35.506Z,14.28
2024-03-31T01:56:38.034Z,14.31
2024-03-31T01:57:40.209Z,14.33
2024-03-31T01:58:43.369Z,14.35
2024-03-31T01:59:45.424Z,14.39
2024-03-31T02:00:47.504Z,14.43
2024-03-31T02:01:49.543Z,14.48
2024-03-31T02:02:51.616Z,14.52
2024-03-31T02:03:53.675Z,14.56
2024-03-31T02:04:55.716Z,14.60
2024-03-31T02:05:57.768Z,14.66
2024-03-31T02:06:59.840Z,14.71
2024-03-31T02:08:01.881Z,14.76
2024-03-31T02:09:03.935Z,14.80
2024-03-31T02:10:09.058Z,14.85
2024-03-31T02:11:11.540Z,14.92
2024-03-31T02:12:13.605Z,14.97
2024-03-31T02:13:15.654Z,15.03
2024-03-31T02:14:17.750Z,15.08
2024-03-31T02:15:19.754Z,15.13
2024-03-31T02:16:23.360Z,15.18
2024-03-31T02:17:25.430Z,15.23
2024-03-31T02:18:27.461Z,15.27
2024-03-31T02:19:29.520Z,15.31
2024-03-31T02:20:31.659Z,15.35
2024-03-31T02:21:33.875Z,15.39
2024-03-31T02:22:36.063Z,15.43
2024-03-31T02:23:38.093Z,15.47
2024-03-31T02:24:40.167Z,15.51
2024-03-31T02:25:42.231Z,15.54
2024-03-31T02:26:44.270Z,15.57
2024-03-31T02:27:46.330Z,15.60
2024-03-31T02:28:48.471Z,15.63
2024-03-31T02:29:50.516Z,15.66
2024-03-31T02:30:52.868Z,15.69
2024-03-31T02:31:55.344Z,15.72
2024-03-31T02:32:57.398Z,15.74
2024-03-31T02:33:59.479Z,15.78
2024-03-31T02:35:01.538Z,15.81
2024-03-31T02:36:04.694Z,15.83
2024-03-31T02:37:06.743Z,15.86
2024-03-31T02:38:08.813Z,15.88
2024-03-31T02:39:11.278Z,15.90
2024-03-31T02:40:13.495Z,15.92
2024-03-31T02:41:15.572Z,15.94
2024-03-31T02:42:17.729Z,15.97
2024-03-31T02:43:24.138Z,15.99
2024-03-31T02:44:27.305Z,16.00
2024-03-31T02:45:29.348Z,16.02
2024-03-31T02:46:31.401Z,16.04
2024-03-31T02:47:35.723Z,16.05
2024-03-31T02:48:40.420Z,16.06
2024-03-31T02:49:45.296Z,16.08
2024-03-31T02:50:48.233Z,16.08
2024-03-31T02:51:50.669Z,16.10
2024-03-31T02:52:52.713Z,16.11
2024-03-31T02:53:54.783Z,16.11
2024-03-31T02:54:58.366Z,16.12
2024-03-31T02:56:01.249Z,16.12
2024-03-31T02:57:04.726Z,16.12
2024-03-31T02:58:08.872Z,16.13
2024-03-31T02:59:12.422Z,16.13
2024-03-31T03:00:16.201Z,16.12
2024-03-31T03:01:18.266Z,16.12
2024-03-31T03:02:21.867Z,16.12
2024-03-31T03:03:24.326Z,16.12
2024-03-31T03:04:27.462Z,16.11
2024-03-31T03:05:32.135Z,16.11
2024-03-31T03:06:36.768Z,16.10
2024-03-31T03:07:40.550Z,16.10
2024-03-31T03:08:42.766Z,16.09
2024-03-31T03:09:49.753Z,16.08
2024-03-31T03:10:54.019Z,16.07
2024-03-31T03:11:56.093Z,16.07
2024-03-31T03:12:59.620Z,16.06
2024-03-31T03:14:02.092Z,16.05
2024-03-31T03:15:08.063Z,16.04
2024-03-31T03:16:10.366Z,16.03
2024-03-31T03:17:12.532Z,16.02
2024-03-31T03:18:20.881Z,16.01
2024-03-31T03:19:26.207Z,16.00
2024-03-31T03:20:28.240Z,15.98
2024-03-31T03:21:30.276Z,15.97
2024-03-31T03:22:35.034Z,15.96
2024-03-31T03:23:37.080Z,15.96
2024-03-31T03:24:39.185Z,15.95
2024-03-31T03:25:41.221Z,15.94
2024-03-31T03:26:46.035Z,15.93
2024-03-31T03:27:48.193Z,15.92
2024-03-31T03:28:50.245Z,15.91
2024-03-31T03:29:52.712Z,15.90
2024-03-31T03:30:54.843Z,15.89
2024-03-31T03:31:59.404Z,15.88
2024-03-31T03:33:02.985Z,15.87
2024-03-31T03:34:05.216Z,15.85
2024-03-31T03:35:07.589Z,15.84
2024-03-31T03:36:09.637Z,15.83
2024-03-31T03:37:11.717Z,15.82
2024-03-31T03:38:13.763Z,15.81
2024-03-31T03:39:17.608Z,15.80
2024-03-31T03:40:19.660Z,15.79
2024-03-31T03:41:21.851Z,15.79
2024-03-31T03:42:23.918Z,15.78
2024-03-31T03:43:32.778Z,15.78
2024-03-31T03:44:36.086Z,15.77
2024-03-31T03:45:38.198Z,15.77
2024-03-31T03:46:40.360Z,15.78
2024-03-31T03:47:42.406Z,15.78
2024-03-31T03:48:44.445Z,15.78
2024-03-31T03:49:46.495Z,15.78
2024-03-31T03:50:48.553Z,15.78
2024-03-31T03:51:52.083Z,15.79
2024-03-31T03:52:54.138Z,15.80
2024-03-31T03:53:57.209Z,15.81
2024-03-31T03:54:59.232Z,15.81
2024-03-31T03:56:01.392Z,15.82
2024-03-31T03:57:03.459Z,15.82
2024-03-31T03:58:05.484Z,15.83
2024-03-31T03:59:07.570Z,15.83
2024-03-31T04:00:10.091Z,15.84
2024-03-31T04:01:17.891Z,15.84
2024-03-31T04:02:19.945Z,15.85
2024-03-31T04:03:22.050Z,15.85
2024-03-31T04:04:24.111Z,15.86
2024-03-31T04:05:26.172Z,15.87
2024-03-31T04:06:28.194Z,15.88
2024-03-31T04:07:30.820Z,15.89
2024-03-31T04:08:32.861Z,15.91
2024-03-31T04:09:35.887Z,15.92
2024-03-31T04:10:40.740Z,15.93
2024-03-31T04:11:42.777Z,15.94
2024-03-31T04:12:45.269Z,15.95
2024-03-31T04:13:48.576Z,15.96
2024-03-31T04:14:50.659Z,15.97
2024-03-31T04:15:59.155Z,15.99
2024-03-31T04:17:05.770Z,16.01
2024-03-31T04:18:08.199Z,16.03
2024-03-31T04:19:11.536Z,16.05
2024-03-31T04:20:14.051Z,16.07
2024-03-31T04:21:16.075Z,16.09
2024-03-31T04:22:18.139Z,16.11
2024-03-31T04:23:20.208Z,16.14
2024-03-31T04:24:23.415Z,16.17
2024-03-31T04:25:25.486Z,16.19
2024-03-31T04:26:27.682Z,16.21
2024-03-31T04:27:30.412Z,16.23
2024-03-31T04:28:34.007Z,16.25
2024-03-31T04:29:36.064Z,16.26
2024-03-31T04:30:42.271Z,16.27
2024-03-31T04:31:56.995Z,16.29
2024-03-31T04:33:00.051Z,16.30
2024-03-31T04:34:02.721Z,16.30
2024-03-31T04:35:04.968Z,16.32
2024-03-31T04:36:11.189Z,16.32
2024-03-31T04:37:13.486Z,16.33
2024-03-31T04:38:15.510Z,16.34
2024-03-31T04:39:17.557Z,16.34
2024-03-31T04:40:20.897Z,16.34
2024-03-31T04:41:22.933Z,16.34
2024-03-31T04:42:25.013Z,16.34
2024-03-31T04:43:27.118Z,16.34
2024-03-31T04:44:29.205Z,16.34
2024-03-31T04:45:32.266Z,16.34
2024-03-31T04:46:34.553Z,16.34
2024-03-31T04:47:36.598Z,16.34
2024-03-31T04:48:38.948Z,16.34
2024-03-31T04:49:42.954Z,16.33
2024-03-31T04:50:45.296Z,16.33
2024-03-31T04:51:50.671Z,16.33
2024-03-31T04:52:57.391Z,16.32
2024-03-31T04:53:59.967Z,16.32
2024-03-31T04:55:02.030Z,16.32
2024-03-31T04:56:04.397Z,16.32
2024-03-31T04:57:06.454Z,16.32
2024-03-31T04:58:09.059Z,16.31
2024-03-31T04:59:11.113Z,16.30
2024-03-31T05:00:13.172Z,16.29
2024-03-31T05:01:16.642Z,16.28
2024-03-31T05:02:18.684Z,16.26
2024-03-31T05:03:24.087Z,16.25
2024-03-31T05:04:26.140Z,16.24
2024-03-31T05:05:28.191Z,16.23
2024-03-31T05:06:30.230Z,16.23
2024-03-31T05:07:34.227Z,16.21
2024-03-31T05:08:36.266Z,16.21
2024-03-31T05:09:38.339Z,16.20
2024-03-31T05:10:40.473Z,16.19
2024-03-31T05:11:42.750Z,16.18
2024-03-31T05:12:44.803Z,16.17
2024-03-31T05:13:46.843Z,16.15
2024-03-31T05:14:51.849Z,16.14
2024-03-31T05:16:00.960Z,16.13
2024-03-31T05:17:07.536Z,16.13
2024-03-31T05:18:09.685Z,16.13
2024-03-31T05:19:13.504Z,16.13
2024-03-31T05:20:15.979Z,16.13
2024-03-31T05:21:18.126Z,16.13
2024-03-31T05:22:20.514Z,16.14
2024-03-31T05:23:22.837Z,16.15
2024-03-31T05:24:24.877Z,16.16
2024-03-31T05:25:27.359Z,16.17
2024-03-31T05:26:29.393Z,16.17
2024-03-31T05:27:31.445Z,16.18
2024-03-31T05:28:37.917Z,16.20
2024-03-31T05:29:44.923Z,16.22
2024-03-31T05:30:47.237Z,16.24
2024-03-31T05:31:49.280Z,16.26
2024-03-31T05:32:57.603Z,16.28
2024-03-31T05:34:10.234Z,16.30
2024-03-31T05:35:17.843Z,16.33
2024-03-31T05:36:21.817Z,16.35
2024-03-31T05:37:23.995Z,16.36
2024-03-31T05:38:26.526Z,16.37
2024-03-31T05:39:41.392Z,16.38
2024-03-31T05:40:44.956Z,16.40
2024-03-31T05:41:47.165Z,16.42
2024-03-31T05:42:51.859Z,16.42
2024-03-31T05:43:54.738Z,16.43
2024-03-31T05:44:58.028Z,16.44
2024-03-31T05:46:00.947Z,16.45
2024-03-31T05:47:03.386Z,16.47
2024-03-31T05:48:09.044Z,16.48
2024-03-31T05:49:15.462Z,16.48
2024-03-31T05:50:18.845Z,16.49
2024-03-31T05:51:21.004Z,16.50
2024-03-31T05:52:25.497Z,16.51
2024-03-31T05:53:27.548Z,16.52
2024-03-31T05:54:29.579Z,16.54
2024-03-31T05:55:35.863Z,16.55
2024-03-31T05:56:39.186Z,16.56
2024-03-31T05:57:42.045Z,16.57
2024-03-31T05:58:44.093Z,16.58
2024-03-31T05:59:50.348Z,16.60
2024-03-31T06:00:52.386Z,16.61
2024-03-31T06:02:00.646Z,16.62
2024-03-31T06:03:03.649Z,16.63
2024-03-31T06:04:07.253Z,16.65
2024-03-31T06:05:10.846Z,16.66
2024-03-31T06:06:12.894Z,16.67
2024-03-31T06:07:14.954Z,16.68
2024-03-31T06:08:17.050Z,16.69
2024-03-31T06:09:19.091Z,16.70
2024-03-31T06:10:24.859Z,16.73
2024-03-31T06:11:28.602Z,16.75
2024-03-31T06:12:33.120Z,16.77
2024-03-31T06:13:35.199Z,16.77
2024-03-31T06:14:38.565Z,16.79
2024-03-31T06:15:41.221Z,16.81
2024-03-31T06:16:43.234Z,16.83
2024-03-31T06:17:45.490Z,16.85
2024-03-31T06:18:48.791Z,16.87
2024-03-31T06:19:55.335Z,16.90
2024-03-31T06:20:57.590Z,16.92
2024-03-31T06:22:00.682Z,16.95
2024-03-31T06:23:02.747Z,16.97
2024-03-31T06:24:05.090Z,17.01
2024-03-31T06:25:09.896Z,17.04
2024-03-31T06:26:14.025Z,17.06
2024-03-31T06:27:18.231Z,17.08
2024-03-31T06:28:21.379Z,17.11
2024-03-31T06:29:24.125Z,17.14
2024-03-31T06:30:26.718Z,17.17
2024-03-31T06:31:31.252Z,17.19
2024-03-31T06:32:37.438Z,17.22
2024-03-31T06:33:43.679Z,17.24
2024-03-31T06:34:45.861Z,17.27
2024-03-31T06:35:47.915Z,17.29
2024-03-31T06:36:50.020Z,17.32
2024-03-31T06:37:52.061Z,17.36
2024-03-31T06:38:54.120Z,17.42
2024-03-31T06:39:56.209Z,17.47
2024-03-31T06:40:59.218Z,17.52
2024-03-31T06:42:01.273Z,17.56
2024-03-31T06:43:04.572Z,17.60
2024-03-31T06:44:06.629Z,17.65
2024-03-31T06:45:10.394Z,17.71
2024-03-31T06:46:12.564Z,17.75
2024-03-31T06:47:15.250Z,17.80
2024-03-31T06:48:18.050Z,17.87
2024-03-31T06:49:20.709Z,17.92
2024-03-31T06:50:24.614Z,17.97
2024-03-31T06:51:27.396Z,18.02
2024-03-31T06:52:30.035Z,18.07
2024-03-31T06:53:32.759Z,18.11
2024-03-31T06:54:34.811Z,18.15
2024-03-31T06:55:42.226Z,18.18
2024-03-31T06:56:44.273Z,18.21
2024-03-31T06:57:46.345Z,18.24
2024-03-31T06:58:50.431Z,18.26
2024-03-31T06:59:53.010Z,18.28
2024-03-31T07:00:58.808Z,18.31
2024-03-31T07:02:01.839Z,18.35
2024-03-31T07:03:03.945Z,18.37
2024-03-31T07:04:06.480Z,18.41
2024-03-31T07:05:08.533Z,18.45
2024-03-31T07:06:10.589Z,18.51
2024-03-31T07:07:15.984Z,18.57
2024-03-31T07:08:20.027Z,18.62
2024-03-31T07:09:24.036Z,18.66
2024-03-31T07:10:28.160Z,18.70
2024-03-31T07:11:30.202Z,18.76
2024-03-31T07:12:32.328Z,18.80
2024-03-31T07:13:35.814Z,18.83
2024-03-31T07:14:37.873Z,18.86
2024-03-31T07:15:41.736Z,18.88
2024-03-31T07:16:44.080Z,18.91
2024-03-31T07:17:47.721Z,18.95
2024-03-31T07:18:49.879Z,18.98
2024-03-31T07:19:53.815Z,19.00
2024-03-31T07:20:57.043Z,19.03
2024-03-31T07:21:59.963Z,19.06
2024-03-31T07:23:03.108Z,19.08
2024-03-31T07:24:05.275Z,19.12
2024-03-31T07:25:07.608Z,19.15
2024-03-31T07:26:10.617Z,19.18
2024-03-31T07:27:12.656Z,19.19
2024-03-31T07:28:14.696Z,19.22
2024-03-31T07:29:19.679Z,19.25
2024-03-31T07:30:22.374Z,19.27
2024-03-31T07:31:25.040Z,19.29
2024-03-31T07:32:28.044Z,19.33
2024-03-31T07:33:30.823Z,19.37
2024-03-31T07:34:32.906Z,19.40
2024-03-31T07:35:36.449Z,19.44
2024-03-31T07:36:40.470Z,19.49
2024-03-31T07:37:42.576Z,19.52
2024-03-31T07:38:44.603Z,19.58
2024-03-31T07:39:46.668Z,19.68
2024-03-31T07:40:48.759Z,19.78
2024-03-31T07:41:50.805Z,19.86
2024-03-31T07:42:54.959Z,19.96
2024-03-31T07:43:56.993Z,20.06
2024-03-31T07:44:59.051Z,20.21
2024-03-31T07:46:01.165Z,20.41
2024-03-31T07:47:03.247Z,20.69
2024-03-31T07:48:05.769Z,20.90
2024-03-31T07:49:07.837Z,21.19
2024-03-31T07:50:09.853Z,21.63
2024-03-31T07:51:11.901Z,21.94
2024-03-31T07:52:13.951Z,22.22
2024-03-31T07:53:16.020Z,22.57
2024-03-31T07:54:18.037Z,23.09
2024-03-31T07:55:20.089Z,23.71
2024-03-31T07:56:22.130Z,24.31
2024-03-31T07:57:24.192Z,24.68
2024-03-31T07:58:26.716Z,25.18
2024-03-31T07:59:29.263Z,25.57
2024-03-31T08:00:31.358Z,25.97
2024-03-31T08:01:34.500Z,26.55
2024-03-31T08:02:36.633Z,27.03
2024-03-31T08:03:38.702Z,27.44
2024-03-31T08:04:40.900Z,27.42
2024-03-31T08:05:43.861Z,27.52
2024-03-31T08:06:45.945Z,27.73
2024-03-31T08:07:48.032Z,28.22
2024-03-31T08:08:50.058Z,28.70
2024-03-31T08:09:52.139Z,29.23
2024-03-31T08:10:54.175Z,29.77
2024-03-31T08:11:56.290Z,29.76
2024-03-31T08:13:01.581Z,29.72
2024-03-31T08:14:03.849Z,29.72
2024-03-31T08:15:06.205Z,29.63
2024-03-31T08:16:08.240Z,29.53
2024-03-31T08:17:10.297Z,29.57
2024-03-31T08:18:12.664Z,29.58
2024-03-31T08:19:14.704Z,29.56
2024-03-31T08:20:16.737Z,29.59
2024-03-31T08:21:18.826Z,29.71
2024-03-31T08:22:20.865Z,29.75
2024-03-31T08:23:23.130Z,29.78
2024-03-31T08:24:25.192Z,29.72
2024-03-31T08:25:27.284Z,29.66
2024-03-31T08:26:29.327Z,29.72
2024-03-31T08:27:32.105Z,29.73
2024-03-31T08:28:34.261Z,29.74
2024-03-31T08:29:36.358Z,29.68
2024-03-31T08:30:38.392Z,29.49
2024-03-31T08:31:40.439Z,29.40
2024-03-31T08:32:46.280Z,29.23
2024-03-31T08:33:49.605Z,28.99
2024-03-31T08:34:51.635Z,28.77
2024-03-31T08:35:54.032Z,28.67
2024-03-31T08:36:56.061Z,28.67
2024-03-31T08:37:59.636Z,28.59
2024-03-31T08:39:03.031Z,28.58
2024-03-31T08:40:05.454Z,28.62
2024-03-31T08:41:10.654Z,28.63
2024-03-31T08:42:14.499Z,28.64
2024-03-31T08:43:21.816Z,28.68
2024-03-31T08:44:24.077Z,28.75
2024-03-31T08:45:26.254Z,28.76
2024-03-31T08:46:28.851Z,28.79
2024-03-31T08:47:34.296Z,28.89
2024-03-31T08:48:37.255Z,28.97
2024-03-31T08:49:39.926Z,29.02
2024-03-31T08:50:43.459Z,29.04
2024-03-31T08:51:45.583Z,28.95
2024-03-31T08:52:47.752Z,28.94
2024-03-31T08:53:51.459Z,28.96
2024-03-31T08:54:57.263Z,29.00
2024-03-31T08:55:59.733Z,29.13
2024-03-31T08:57:01.754Z,29.53
2024-03-31T08:58:03.906Z,29.76
2024-03-31T08:59:05.980Z,29.92
2024-03-31T09:00:09.004Z,30.17
2024-03-31T09:01:14.026Z,30.28
2024-03-31T09:02:23.509Z,30.46
2024-03-31T09:03:25.561Z,30.67
2024-03-31T09:04:27.625Z,30.75
2024-03-31T09:05:30.349Z,30.79
2024-03-31T09:06:32.449Z,30.83
2024-03-31T09:07:39.352Z,30.94
2024-03-31T09:08:42.748Z,31.14
2024-03-31T09:09:45.230Z,31.10
2024-03-31T09:10:47.257Z,30.73
2024-03-31T09:11:49.731Z,30.61
2024-03-31T09:12:52.198Z,30.91
2024-03-31T09:13:54.256Z,31.21
2024-03-31T09:14:56.329Z,31.39
2024-03-31T09:15:58.689Z,31.43
2024-03-31T09:17:00.722Z,31.46
2024-03-31T09:18:03.260Z,31.46
2024-03-31T09:19:05.413Z,31.41
2024-03-31T09:20:07.732Z,31.41
2024-03-31T09:21:10.865Z,31.40
2024-03-31T09:22:13.464Z,31.43
2024-03-31T09:23:15.724Z,31.42
2024-03-31T09:24:19.062Z,31.31
2024-03-31T09:25:21.171Z,31.27
2024-03-31T09:26:23.206Z,31.24
2024-03-31T09:27:25.533Z,31.24
2024-03-31T09:28:27.781Z,31.27
2024-03-31T09:29:29.841Z,31.18
2024-03-31T09:30:31.880Z,31.14
2024-03-31T09:31:34.860Z,31.12
2024-03-31T09:32:38.579Z,31.11
2024-03-31T09:33:40.623Z,31.10
2024-03-31T09:34:46.536Z,31.12
2024-03-31T09:35:48.580Z,31.08
2024-03-31T09:36:50.667Z,30.80
2024-03-31T09:37:52.678Z,30.75
2024-03-31T09:38:54.735Z,30.70
2024-03-31T09:39:56.815Z,30.67
2024-03-31T09:40:59.330Z,30.81
2024-03-31T09:42:01.395Z,31.08
2024-03-31T09:43:04.092Z,31.61
2024-03-31T09:44:08.111Z,31.75
2024-03-31T09:45:13.575Z,31.82
2024-03-31T09:46:15.723Z,31.92
2024-03-31T09:47:29.374Z,32.00
2024-03-31T09:48:32.120Z,32.07
2024-03-31T09:49:38.144Z,32.12
2024-03-31T09:50:55.043Z,32.27
2024-03-31T09:51:59.729Z,32.54
2024-03-31T09:53:02.886Z,32.66
2024-03-31T09:54:07.460Z,32.75
2024-03-31T09:55:14.125Z,32.84
2024-03-31T09:56:16.708Z,32.76
2024-03-31T09:57:22.415Z,32.80
2024-03-31T09:58:25.308Z,32.75
2024-03-31T09:59:27.704Z,32.56
2024-03-31T10:00:30.517Z,32.45
2024-03-31T10:01:32.923Z,32.44
2024-03-31T10:02:36.624Z,32.34
2024-03-31T10:03:42.015Z,32.24
2024-03-31T10:04:53.768Z,32.32
2024-03-31T10:05:57.837Z,32.45
2024-03-31T10:07:00.055Z,32.46
2024-03-31T10:08:05.872Z,32.49
2024-03-31T10:09:08.754Z,32.37
2024-03-31T10:10:11.928Z,32.11
2024-03-31T10:11:18.222Z,31.75
2024-03-31T10:12:21.567Z,30.82
2024-03-31T10:13:28.920Z,29.91
2024-03-31T10:14:33.692Z,29.98
2024-03-31T10:15:36.530Z,30.03
2024-03-31T10:16:39.997Z,30.03
2024-03-31T10:17:42.277Z,29.90
2024-03-31T10:18:45.945Z,29.56
2024-03-31T10:19:50.190Z,29.39
2024-03-31T10:20:52.569Z,29.39
2024-03-31T10:21:56.607Z,29.41
2024-03-31T10:22:59.089Z,29.42
2024-03-31T10:24:01.130Z,29.39
2024-03-31T10:25:04.484Z,29.40
2024-03-31T10:26:07.453Z,29.40
2024-03-31T10:27:09.823Z,29.42
2024-03-31T10:28:13.655Z,29.45
2024-03-31T10:29:16.497Z,29.47
2024-03-31T10:30:18.950Z,29.44
2024-03-31T10:31:20.984Z,29.36
2024-03-31T10:32:23.033Z,29.31
2024-03-31T10:33:36.202Z,29.21
2024-03-31T10:34:43.095Z,28.68
2024-03-31T10:35:45.402Z,28.51
2024-03-31T10:36:48.576Z,28.30
2024-03-31T10:37:51.146Z,28.29
2024-03-31T10:38:53.211Z,28.29
2024-03-31T10:39:55.462Z,28.29
2024-03-31T10:40:57.637Z,28.28
2024-03-31T10:41:59.759Z,28.25
2024-03-31T10:43:03.231Z,28.27
2024-03-31T10:44:05.869Z,28.36
2024-03-31T10:45:08.935Z,28.62
2024-03-31T10:46:11.061Z,29.68
2024-03-31T10:47:13.081Z,29.85
2024-03-31T10:48:15.815Z,30.10
2024-03-31T10:49:17.856Z,30.35
2024-03-31T10:50:26.250Z,30.37
2024-03-31T10:51:28.463Z,30.22
2024-03-31T10:52:33.427Z,30.10
2024-03-31T10:53:35.656Z,30.03
2024-03-31T10:54:37.731Z,29.94
2024-03-31T10:55:43.242Z,29.65
2024-03-31T10:56:59.199Z,29.17
2024-03-31T10:58:02.698Z,28.22
2024-03-31T10:59:07.959Z,28.12
2024-03-31T11:00:17.480Z,27.99
2024-03-31T11:01:19.760Z,27.75
2024-03-31T11:02:21.908Z,27.64
2024-03-31T11:03:28.914Z,27.50
2024-03-31T11:04:30.966Z,27.43
2024-03-31T11:05:33.247Z,27.43
2024-03-31T11:06:35.365Z,27.37
2024-03-31T11:07:40.566Z,27.03
2024-03-31T11:08:43.456Z,26.97
2024-03-31T11:09:45.510Z,26.99
2024-03-31T11:10:47.570Z,27.10
2024-03-31T11:11:50.132Z,27.26
2024-03-31T11:12:52.317Z,27.50
2024-03-31T11:13:54.888Z,27.56
2024-03-31T11:14:57.206Z,27.54
2024-03-31T11:15:59.274Z,27.60
2024-03-31T11:17:01.717Z,27.98
2024-03-31T11:18:04.429Z,28.86
2024-03-31T11:19:07.087Z,29.28
2024-03-31T11:20:11.733Z,29.35
2024-03-31T11:21:15.083Z,29.37
2024-03-31T11:22:17.415Z,29.38
2024-03-31T11:23:19.493Z,29.41
2024-03-31T11:24:21.679Z,29.83
2024-03-31T11:25:24.137Z,30.71
2024-03-31T11:26:26.442Z,30.91
2024-03-31T11:27:28.930Z,30.88
2024-03-31T11:28:32.986Z,31.04
2024-03-31T11:29:35.647Z,31.28
2024-03-31T11:30:38.155Z,31.32
2024-03-31T11:31:40.544Z,31.31
2024-03-31T11:32:43.203Z,31.29
2024-03-31T11:33:45.429Z,31.31
2024-03-31T11:34:48.211Z,31.43
2024-03-31T11:35:50.632Z,31.55
2024-03-31T11:36:52.761Z,31.60
2024-03-31T11:38:10.182Z,31.62
2024-03-31T11:39:12.729Z,31.71
2024-03-31T11:40:14.784Z,31.66
2024-03-31T11:41:16.877Z,31.52
2024-03-31T11:42:18.967Z,31.51
2024-03-31T11:43:21.036Z,31.49
2024-03-31T11:44:23.146Z,31.27
2024-03-31T11:45:25.418Z,30.27
2024-03-31T11:46:27.431Z,29.92
2024-03-31T11:47:29.631Z,29.95
2024-03-31T11:48:31.707Z,30.05
2024-03-31T11:49:34.550Z,30.14
2024-03-31T11:50:36.738Z,30.28
2024-03-31T11:51:38.829Z,30.34
2024-03-31T11:52:40.851Z,30.23
2024-03-31T11:53:43.298Z,30.17
2024-03-31T11:54:45.338Z,30.12
2024-03-31T11:55:47.634Z,30.02
2024-03-31T11:56:49.733Z,29.85
2024-03-31T11:57:51.926Z,29.78
2024-03-31T11:58:53.955Z,29.71
2024-03-31T11:59:56.185Z,29.63
2024-03-31T12:00:58.242Z,29.60
2024-03-31T12:02:09.686Z,29.57
2024-03-31T12:03:12.513Z,29.41
2024-03-31T12:04:15.210Z,29.35
2024-03-31T12:05:20.488Z,29.33
2024-03-31T12:06:23.637Z,29.30
2024-03-31T12:07:25.688Z,29.25
2024-03-31T12:08:42.546Z,29.24
2024-03-31T12:09:49.305Z,29.21
2024-03-31T12:10:51.414Z,29.17
2024-03-31T12:11:55.653Z,29.07
2024-03-31T12:12:58.956Z,28.97
2024-03-31T12:14:01.116Z,28.92
2024-03-31T12:15:04.347Z,28.90
2024-03-31T12:16:07.007Z,28.88
2024-03-31T12:17:09.033Z,28.88
2024-03-31T12:18:12.222Z,28.80
2024-03-31T12:19:14.342Z,28.73
2024-03-31T12:20:20.073Z,28.71
2024-03-31T12:21:24.757Z,28.66
2024-03-31T12:22:26.850Z,28.52
2024-03-31T12:23:29.641Z,28.33
2024-03-31T12:24:32.047Z,28.23
2024-03-31T12:25:35.726Z,28.18
2024-03-31T12:26:38.275Z,28.12
2024-03-31T12:27:40.390Z,28.07
2024-03-31T12:28:43.752Z,28.03
2024-03-31T12:29:46.242Z,27.94
2024-03-31T12:30:48.419Z,27.82
2024-03-31T12:31:50.674Z,27.65
2024-03-31T12:32:52.737Z,27.48
2024-03-31T12:33:55.005Z,27.42
2024-03-31T12:34:57.684Z,27.40
2024-03-31T12:36:03.104Z,27.37
2024-03-31T12:37:06.494Z,27.33
2024-03-31T12:38:08.518Z,27.28
2024-03-31T12:39:10.633Z,27.26
2024-03-31T12:40:12.678Z,27.20
2024-03-31T12:41:16.464Z,27.16
2024-03-31T12:42:18.508Z,27.15
2024-03-31T12:43:28.201Z,27.14
2024-03-31T12:44:30.689Z,27.14
2024-03-31T12:45:32.805Z,27.15
2024-03-31T12:46:38.114Z,27.17
2024-03-31T12:47:41.816Z,27.23
2024-03-31T12:48:44.383Z,27.24
2024-03-31T12:49:46.436Z,27.24
2024-03-31T12:50:53.056Z,27.26
2024-03-31T12:51:55.629Z,27.29
2024-03-31T12:53:09.811Z,27.27
2024-03-31T12:54:11.908Z,27.27
2024-03-31T12:55:14.014Z,27.29
2024-03-31T12:56:17.308Z,27.29
2024-03-31T12:57:19.376Z,27.28
2024-03-31T12:58:21.444Z,27.18
2024-03-31T12:59:23.568Z,26.99
2024-03-31T13:00:25.626Z,26.92
2024-03-31T13:01:27.724Z,26.87
2024-03-31T13:02:30.074Z,26.81
2024-03-31T13:03:33.575Z,26.76
2024-03-31T13:04:39.174Z,26.69
2024-03-31T13:05:43.516Z,26.65
2024-03-31T13:06:45.595Z,26.63
2024-03-31T13:07:47.663Z,26.57
2024-03-31T13:08:50.205Z,26.55
2024-03-31T13:09:52.246Z,26.51
2024-03-31T13:10:54.323Z,26.50
2024-03-31T13:11:56.499Z,26.52
2024-03-31T13:12:58.553Z,26.56
2024-03-31T13:14:00.615Z,26.59
2024-03-31T13:15:02.819Z,26.60
2024-03-31T13:16:04.909Z,26.62
2024-03-31T13:17:06.923Z,26.68
2024-03-31T13:18:09.199Z,26.74
2024-03-31T13:19:11.249Z,26.79
2024-03-31T13:20:16.026Z,26.82
2024-03-31T13:21:18.438Z,26.86
2024-03-31T13:22:20.503Z,26.88
2024-03-31T13:23:23.730Z,26.90
2024-03-31T13:24:27.387Z,26.93
2024-03-31T13:25:32.698Z,26.96
2024-03-31T13:26:34.727Z,26.97
2024-03-31T13:27:36.858Z,26.96
2024-03-31T13:28:38.927Z,26.95
2024-03-31T13:29:40.989Z,26.93
2024-03-31T13:30:43.156Z,26.92
2024-03-31T13:31:45.207Z,26.88
2024-03-31T13:32:47.263Z,26.87